Time;durP1;ratioP1;P1;durP2;ratioP2;P2;SDS_P1;SDS_P2;PMS_P1;PMS_P2;Temp;Humidity;BMP_temperature;BMP_pressure;BME280_temperature;BME280_humidity;BME280_pressure;Samples;Min_cycle;Max_cycle;Signal;HPM_P1;HPM_P2
2022/09/14 07:03:42;;;;;;;0.60;0.10;;;19.50;72.50;;;;;;6191624;22;885055;-72
2022/09/14 07:06:11;;;;;;;0.60;0.20;;;19.40;75.90;;;;;;6173833;23;1233741;-70
2022/09/14 07:08:40;;;;;;;0.60;0.10;;;;;;;;;;6214912;23;20188;-71
2022/09/14 07:11:10;;;;;;;0.60;0.10;;;19.50;78.10;;;;;;6215750;23;20476;-71
2022/09/14 07:13:41;;;;;;;0.60;0.10;;;19.60;78.20;;;;;;6198263;23;20420;-71
2022/09/14 07:16:09;;;;;;;0.60;0.10;;;;;;;;;;6208832;22;20449;-69
2022/09/14 07:18:38;;;;;;;0.60;0.20;;;19.60;78.20;;;;;;6276743;22;20401;-73
2022/09/14 07:21:09;;;;;;;0.60;0.10;;;19.70;78.30;;;;;;6277159;22;20433;-72
2022/09/14 07:23:39;;;;;;;0.60;0.10;;;19.80;80.50;;;;;;6273466;22;20405;-74
2022/09/14 07:26:10;;;;;;;0.60;0.10;;;19.80;73.00;;;;;;6266984;22;20747;-72
2022/09/14 07:28:39;;;;;;;0.60;0.10;;;19.80;73.10;;;;;;6246069;23;20402;-72
2022/09/14 07:31:15;;;;;;;0.60;0.10;;;19.80;64.90;;;;;;6245983;23;20394;-73
2022/09/14 07:33:43;;;;;;;0.60;0.20;;;19.90;69.30;;;;;;6245518;23;20442;-73
2022/09/14 07:36:13;;;;;;;0.60;0.10;;;20.00;66.70;;;;;;6245761;22;20990;-75
2022/09/14 07:38:40;;;;;;;0.60;0.10;;;20.10;67.00;;;;;;6246283;23;20383;-74
2022/09/14 07:41:20;;;;;;;0.60;0.10;;;20.10;55.60;;;;;;6246769;23;20430;-71
2022/09/14 07:43:49;;;;;;;0.60;0.10;;;20.20;49.00;;;;;;6244736;23;20956;-71
2022/09/14 07:46:17;;;;;;;0.60;0.20;;;20.20;38.70;;;;;;6244649;22;20426;-74
2022/09/14 07:48:45;;;;;;;0.60;0.10;;;20.20;39.00;;;;;;6244976;23;20793;-74
2022/09/14 07:51:14;;;;;;;0.60;0.10;;;20.20;35.50;;;;;;6245271;23;20402;-73
2022/09/14 07:53:43;;;;;;;0.60;0.13;;;20.30;37.00;;;;;;6245237;23;20741;-72
2022/09/14 07:56:12;;;;;;;0.60;0.20;;;20.30;28.80;;;;;;6245263;22;20461;-72
2022/09/14 07:58:41;;;;;;;0.60;0.10;;;20.30;30.00;;;;;;6245553;23;20859;-74
2022/09/14 08:01:10;;;;;;;0.60;0.10;;;20.30;23.70;;;;;;6245127;23;20468;-72
2022/09/14 08:03:39;;;;;;;0.60;0.10;;;20.30;23.00;;;;;;6245290;23;20469;-73
2022/09/14 08:06:10;;;;;;;0.60;0.10;;;20.30;23.60;;;;;;6245848;22;20414;-74
2022/09/14 08:08:41;;;;;;;0.60;0.10;;;20.30;26.20;;;;;;6245730;23;20415;-78
2022/09/14 08:11:11;;;;;;;0.60;0.10;;;20.40;33.50;;;;;;6245408;23;20387;-75
2022/09/14 08:13:41;;;;;;;0.60;0.10;;;20.50;24.20;;;;;;6245808;23;20405;-75
2022/09/14 08:16:09;;;;;;;0.60;0.10;;;20.50;22.00;;;;;;6245871;22;20453;-75
2022/09/14 08:18:38;;;;;;;0.60;0.10;;;20.50;23.50;;;;;;6245021;23;20914;-74
2022/09/14 08:21:08;;;;;;;0.60;0.10;;;20.60;23.50;;;;;;6245911;23;20430;-74
2022/09/14 08:23:37;;;;;;;0.60;0.10;;;20.60;21.80;;;;;;6249058;23;20398;-75
2022/09/14 08:26:08;;;;;;;0.60;0.10;;;20.70;9.10;;;;;;6255163;22;20414;-73
2022/09/14 08:28:37;;;;;;;0.60;0.10;;;20.70;10.80;;;;;;6249547;23;20402;-72
2022/09/14 08:31:06;;;;;;;0.60;0.20;;;20.80;4.20;;;;;;6246690;23;20949;-74
2022/09/14 08:33:36;;;;;;;0.60;0.10;;;20.80;5.80;;;;;;6244814;23;20402;-73
2022/09/14 08:36:04;;;;;;;0.60;0.10;;;20.80;1.00;;;;;;6244117;22;20422;-72
2022/09/14 08:38:32;;;;;;;0.60;0.10;;;20.80;1.00;;;;;;6244330;23;20413;-72
2022/09/14 08:41:10;;;;;;;0.60;0.10;;;20.80;1.00;;;;;;6244456;23;20492;-73
2022/09/14 08:43:39;;;;;;;0.60;0.10;;;20.80;1.00;;;;;;6244238;23;20421;-73
2022/09/14 08:46:15;;;;;;;0.60;0.10;;;20.70;1.00;;;;;;6244234;22;20422;-73
2022/09/14 08:48:47;;;;;;;0.60;0.20;;;20.70;1.00;;;;;;6244847;23;20406;-73
2022/09/14 08:51:16;;;;;;;0.60;0.20;;;20.70;1.00;;;;;;6244650;23;20399;-72
2022/09/14 08:53:45;;;;;;;0.60;0.10;;;20.80;1.00;;;;;;6244590;23;20810;-72
2022/09/14 08:56:18;;;;;;;0.60;0.20;;;20.80;1.00;;;;;;6244334;22;20418;-73
2022/09/14 08:59:09;;;;;;;0.60;0.20;;;20.80;1.00;;;;;;6243970;23;20391;-73
2022/09/14 09:01:47;;;;;;;0.60;0.10;;;20.80;1.00;;;;;;6244209;23;20968;-73
2022/09/14 09:04:24;;;;;;;0.60;0.10;;;20.90;1.00;;;;;;6244795;23;20390;-73
2022/09/14 09:07:00;;;;;;;0.60;0.10;;;20.90;1.00;;;;;;6243778;22;20426;-73
2022/09/14 09:09:34;;;;;;;0.60;0.10;;;20.90;1.00;;;;;;6244456;23;20386;-73
2022/09/14 09:12:05;;;;;;;0.60;0.23;;;20.90;1.00;;;;;;6243919;23;20453;-73
2022/09/14 09:14:35;;;;;;;0.60;0.10;;;20.90;1.00;;;;;;6244720;23;20387;-72
2022/09/14 09:17:13;;;;;;;0.60;0.20;;;20.80;1.00;;;;;;6244694;22;20430;-75
2022/09/14 09:19:58;;;;;;;1.60;0.40;;;20.80;1.00;;;;;;6244722;23;20894;-73
2022/09/14 09:22:29;;;;;;;0.60;0.10;;;20.70;1.00;;;;;;6244352;23;20438;-71
2022/09/14 09:24:59;;;;;;;0.60;0.10;;;20.60;1.00;;;;;;6243946;23;20398;-71
2022/09/14 09:27:28;;;;;;;0.60;0.10;;;20.60;1.00;;;;;;6243034;22;20817;-70
2022/09/14 09:29:56;;;;;;;0.80;0.53;;;20.60;1.00;;;;;;6243960;23;20427;-72
2022/09/14 09:32:25;;;;;;;0.60;0.10;;;20.40;1.00;;;;;;6244663;23;20387;-71
2022/09/14 09:34:53;;;;;;;0.60;0.10;;;20.40;1.00;;;;;;6245142;23;20403;-71
2022/09/14 09:37:23;;;;;;;0.60;0.20;;;20.50;1.00;;;;;;6245366;22;20472;-72
2022/09/14 09:39:51;;;;;;;0.60;0.10;;;20.60;3.30;;;;;;6247131;23;20730;-72
2022/09/14 09:42:22;;;;;;;0.60;0.10;;;20.70;2.00;;;;;;6244552;23;20638;-72
2022/09/14 09:44:57;;;;;;;1.20;0.87;;;20.60;1.00;;;;;;6241897;23;20739;-72
2022/09/14 09:47:33;;;;;;;0.70;0.43;;;20.50;1.00;;;;;;6243639;22;20418;-72
2022/09/14 09:50:04;;;;;;;0.60;0.17;;;20.30;4.10;;;;;;6243577;23;20418;-71
2022/09/14 09:52:33;;;;;;;0.60;0.20;;;20.20;15.20;;;;;;6245329;23;20461;-72
2022/09/14 09:55:04;;;;;;;0.60;0.10;;;20.30;21.80;;;;;;6244648;23;20930;-73
2022/09/14 09:57:34;;;;;;;0.60;0.10;;;20.30;22.20;;;;;;6183774;22;20444;-72
2022/09/14 10:00:19;;;;;;;0.60;0.17;;;20.40;21.90;;;;;;6154639;23;20535;-72
2022/09/14 10:02:47;;;;;;;0.60;0.10;;;20.30;20.90;;;;;;6154062;23;20507;-70
2022/09/14 10:05:23;;;;;;;0.60;0.10;;;20.20;22.30;;;;;;6155537;23;20409;-71
2022/09/14 10:07:56;;;;;;;0.60;0.10;;;20.20;25.50;;;;;;6154312;23;20413;-73
2022/09/14 10:10:39;;;;;;;5.07;4.80;;;20.10;36.00;;;;;;6154393;23;20436;-71
2022/09/14 10:13:27;;;;;;;0.60;0.10;;;20.20;41.50;;;;;;6154075;23;20413;-72
2022/09/14 10:16:06;;;;;;;0.60;0.20;;;20.30;38.80;;;;;;6153884;23;20440;-72
2022/09/14 10:18:34;;;;;;;0.60;0.20;;;20.30;41.10;;;;;;6153535;23;20415;-72
2022/09/14 10:21:08;;;;;;;0.60;0.20;;;20.40;35.20;;;;;;6154383;23;20441;-76
2022/09/14 10:23:38;;;;;;;0.60;0.10;;;20.40;36.70;;;;;;6153986;23;20404;-74
2022/09/14 10:26:22;;;;;;;0.60;0.10;;;20.40;24.60;;;;;;6154199;23;20459;-73
2022/09/14 10:28:51;;;;;;;0.60;0.10;;;20.50;26.50;;;;;;6153409;23;20405;-74
2022/09/14 10:31:27;;;;;;;0.60;0.20;;;20.50;23.40;;;;;;6154518;23;20393;-74
2022/09/14 10:33:56;;;;;;;0.63;0.30;;;20.50;19.00;;;;;;6153064;23;20478;-74
2022/09/14 10:36:29;;;;;;;0.60;0.20;;;20.60;13.50;;;;;;6153497;23;20797;-75
2022/09/14 10:39:02;;;;;;;0.60;0.10;;;20.60;15.20;;;;;;6153015;23;20504;-75
2022/09/14 10:41:39;;;;;;;0.60;0.10;;;20.70;14.50;;;;;;6154990;23;20774;-75
2022/09/14 10:44:42;;;;;;;0.60;0.20;;;20.70;13.60;;;;;;6156673;23;20408;-74
2022/09/14 10:47:28;;;;;;;0.90;0.50;;;20.80;1.00;;;;;;6155259;23;20483;-72
2022/09/14 10:50:10;;;;;;;0.97;0.53;;;20.60;1.00;;;;;;6157277;23;20404;-73
2022/09/14 10:52:47;;;;;;;1.13;1.00;;;20.50;1.00;;;;;;6157979;23;20381;-74
2022/09/14 10:55:33;;;;;;;0.77;0.30;;;20.30;1.00;;;;;;6159604;23;20400;-74
2022/09/14 10:58:19;;;;;;;1.53;1.43;;;20.20;1.00;;;;;;6160749;23;20388;-71
2022/09/14 11:01:02;;;;;;;0.60;0.20;;;20.00;1.80;;;;;;6164856;23;20443;-74
2022/09/14 11:03:47;;;;;;;1.30;0.50;;;20.00;10.40;;;;;;6168715;23;20397;-73
2022/09/14 11:06:29;;;;;;;0.70;0.53;;;20.10;10.60;;;;;;6165108;23;20944;-74
2022/09/14 11:09:01;;;;;;;2.47;0.77;;;20.10;12.50;;;;;;6164830;23;20408;-74
2022/09/14 11:11:44;;;;;;;0.60;0.10;;;20.20;10.40;;;;;;6163400;23;20818;-72
2022/09/14 11:14:21;;;;;;;1.30;0.50;;;20.20;11.70;;;;;;6163649;23;20697;-75
2022/09/14 11:17:23;;;;;;;0.60;0.10;;;20.20;18.00;;;;;;6163058;23;20433;-73
2022/09/14 11:20:01;;;;;;;0.60;0.30;;;20.30;22.10;;;;;;6164790;23;20479;-75
2022/09/14 11:22:37;;;;;;;0.60;0.10;;;20.30;23.30;;;;;;6164721;23;20421;-74
2022/09/14 11:25:11;;;;;;;0.60;0.20;;;20.40;28.40;;;;;;6158605;23;20396;-74
2022/09/14 11:27:43;;;;;;;0.60;0.10;;;20.50;29.40;;;;;;6161109;23;20428;-77
2022/09/14 11:30:15;;;;;;;0.60;0.10;;;20.70;22.40;;;;;;6159356;23;20444;-76
2022/09/14 11:32:48;;;;;;;0.60;0.10;;;20.70;23.70;;;;;;6164986;23;20405;-76
2022/09/14 11:35:23;;;;;;;0.60;0.13;;;20.70;19.40;;;;;;6179499;23;20385;-75
2022/09/14 11:37:56;;;;;;;4.13;2.13;;;20.70;11.70;;;;;;6175474;23;20404;-76
2022/09/14 11:40:30;;;;;;;2.10;1.13;;;20.60;6.40;;;;;;6180462;23;20409;-76
2022/09/14 11:43:02;;;;;;;2.20;1.43;;;20.60;11.70;;;;;;6162689;23;20443;-75
2022/09/14 11:45:35;;;;;;;0.70;0.40;;;20.40;12.00;;;;;;6165326;23;20385;-76
2022/09/14 11:48:12;;;;;;;0.70;0.57;;;20.40;13.80;;;;;;6173941;23;20412;-75
2022/09/14 11:51:06;;;;;;;0.60;0.10;;;20.40;18.00;;;;;;6165075;23;20397;-76
2022/09/14 11:53:35;;;;;;;0.80;0.63;;;20.50;22.00;;;;;;6164444;23;20408;-75
2022/09/14 11:56:04;;;;;;;1.20;0.87;;;20.60;12.40;;;;;;6161515;23;20479;-76
2022/09/14 11:58:31;;;;;;;0.60;0.40;;;20.60;12.30;;;;;;6163310;23;20413;-76
2022/09/14 12:01:29;;;;;;;0.70;0.37;;;20.60;14.10;;;;;;6162300;23;20394;-75
2022/09/14 12:04:18;;;;;;;0.60;0.10;;;20.70;17.10;;;;;;6160703;23;20402;-74
2022/09/14 12:06:50;;;;;;;0.60;0.20;;;20.80;11.50;;;;;;6156957;23;20428;-76
2022/09/14 12:09:40;;;;;;;1.43;1.33;;;20.90;11.30;;;;;;6156275;23;20389;-74
2022/09/14 12:12:33;;;;;;;0.80;0.30;;;20.80;4.60;;;;;;6156555;23;20405;-76
2022/09/14 12:15:04;;;;;;;4.57;4.07;;;20.80;6.40;;;;;;6156055;23;20393;-74
2022/09/14 12:17:34;;;;;;;0.60;0.10;;;20.80;6.20;;;;;;6156810;23;20429;-75
2022/09/14 12:20:31;;;;;;;0.60;0.10;;;20.90;9.90;;;;;;6157002;23;20931;-75
2022/09/14 12:23:17;;;;;;;0.80;0.30;;;21.00;12.60;;;;;;6156155;23;20452;-76
2022/09/14 12:26:12;;;;;;;0.60;0.10;;;21.20;1.30;;;;;;6157000;23;20765;-76
2022/09/14 12:28:46;;;;;;;0.60;0.10;;;21.20;1.00;;;;;;6157315;23;20408;-76
2022/09/14 12:31:34;;;;;;;0.60;0.10;;;21.30;1.00;;;;;;6156196;23;20416;-76
2022/09/14 12:34:15;;;;;;;0.60;0.10;;;21.40;1.00;;;;;;6156074;23;20416;-75
2022/09/14 12:37:16;;;;;;;0.60;0.10;;;21.50;1.00;;;;;;6155299;23;20432;-74
2022/09/14 12:40:33;;;;;;;0.60;0.10;;;21.50;1.00;;;;;;6142417;23;20478;-74
2022/09/14 12:43:47;;;;;;;0.60;0.10;;;21.60;1.00;;;;;;6154901;23;20440;-75
2022/09/14 12:46:39;;;;;;;0.60;0.20;;;21.80;1.00;;;;;;6156579;23;20611;-75
2022/09/14 12:49:31;;;;;;;0.60;0.10;;;21.90;1.00;;;;;;6155454;23;20464;-75
2022/09/14 12:52:10;;;;;;;0.60;0.10;;;21.90;1.00;;;;;;6154996;23;20952;-75
2022/09/14 12:54:54;;;;;;;0.60;0.10;;;21.90;1.00;;;;;;6154577;23;20405;-75
2022/09/14 12:57:33;;;;;;;0.60;0.10;;;21.90;1.00;;;;;;6156397;23;20424;-75
2022/09/14 13:00:10;;;;;;;0.87;0.60;;;21.90;1.00;;;;;;6156346;23;20435;-74
2022/09/14 13:02:55;;;;;;;2.50;1.13;;;21.60;1.00;;;;;;6154130;23;20512;-74
2022/09/14 13:05:26;;;;;;;0.70;0.20;;;21.60;1.00;;;;;;6155453;23;20554;-75
2022/09/14 13:07:56;;;;;;;0.60;0.10;;;21.50;1.00;;;;;;6155800;23;20765;-78
2022/09/14 13:10:31;;;;;;;0.83;0.70;;;21.50;1.00;;;;;;6155963;23;20896;-75
2022/09/14 13:13:01;;;;;;;0.60;0.20;;;21.40;1.00;;;;;;6155565;23;20400;-75
2022/09/14 13:15:35;;;;;;;0.60;0.10;;;21.40;1.00;;;;;;6155858;23;20397;-75
2022/09/14 13:18:13;;;;;;;0.60;0.10;;;21.40;7.40;;;;;;6172155;23;20765;-76
2022/09/14 13:20:50;;;;;;;0.70;0.47;;;21.40;7.80;;;;;;6184128;23;20400;-73
2022/09/14 13:23:20;;;;;;;0.60;0.10;;;21.40;18.30;;;;;;6182905;23;20435;-73
2022/09/14 13:25:49;;;;;;;0.60;0.10;;;21.50;22.50;;;;;;6183374;23;20404;-72
2022/09/14 13:28:19;;;;;;;0.60;0.10;;;21.60;22.70;;;;;;6159998;23;20421;-71
2022/09/14 13:30:54;;;;;;;0.60;0.10;;;21.60;22.90;;;;;;6154176;23;20405;-70
2022/09/14 13:33:24;;;;;;;0.60;0.10;;;21.70;24.40;;;;;;6152689;23;20897;-70
2022/09/14 13:35:53;;;;;;;0.60;0.10;;;21.80;22.80;;;;;;6153004;23;20766;-69
2022/09/14 13:38:24;;;;;;;0.60;0.10;;;21.90;18.60;;;;;;6154241;23;20751;-70
2022/09/14 13:40:55;;;;;;;0.60;0.10;;;21.90;20.40;;;;;;6154400;23;20401;-70
2022/09/14 13:43:23;;;;;;;0.60;0.20;;;21.90;9.50;;;;;;6153253;23;20886;-70
2022/09/14 13:45:52;;;;;;;0.60;0.10;;;21.90;11.20;;;;;;6153253;23;20459;-71
2022/09/14 13:48:20;;;;;;;0.60;0.10;;;22.00;5.20;;;;;;6153478;23;20475;-71
2022/09/14 13:50:51;;;;;;;90.83;14.47;;;22.00;3.40;;;;;;6154009;23;20910;-72
2022/09/14 13:53:42;;;;;;;0.60;0.13;;;22.00;1.00;;;;;;6154132;23;20452;-72
2022/09/14 13:56:18;;;;;;;0.60;0.10;;;22.00;1.00;;;;;;6151208;23;20409;-74
2022/09/14 13:58:48;;;;;;;0.60;0.10;;;22.00;1.00;;;;;;6154495;23;20416;-74
2022/09/14 14:01:25;;;;;;;0.60;0.20;;;22.10;1.00;;;;;;6154313;23;20405;-73
2022/09/14 14:03:53;;;;;;;0.60;0.10;;;;;;;;;;6153636;23;20749;-74
2022/09/14 14:06:25;;;;;;;0.60;0.20;;;22.00;1.00;;;;;;6154365;23;20408;-74
2022/09/14 14:08:57;;;;;;;0.60;0.20;;;22.10;1.00;;;;;;6153935;23;20416;-73
2022/09/14 14:11:35;;;;;;;0.60;0.10;;;22.00;1.00;;;;;;6153822;23;20417;-73
2022/09/14 14:14:19;;;;;;;0.60;0.13;;;22.00;1.00;;;;;;6153126;23;20417;-73
2022/09/14 14:17:24;;;;;;;0.60;0.10;;;21.90;1.00;;;;;;6153958;23;20523;-73
2022/09/14 14:19:53;;;;;;;0.60;0.10;;;21.90;4.20;;;;;;6154070;23;20416;-74
2022/09/14 14:22:26;;;;;;;0.60;0.10;;;21.80;7.40;;;;;;6153898;23;20422;-72
2022/09/14 14:24:57;;;;;;;0.60;0.20;;;21.70;13.30;;;;;;6154258;23;20440;-73
2022/09/14 14:27:43;;;;;;;0.60;0.20;;;21.70;16.10;;;;;;6153823;23;20461;-73
2022/09/14 14:30:14;;;;;;;0.60;0.17;;;21.70;21.70;;;;;;6153505;23;20866;-74
2022/09/14 14:32:42;;;;;;;0.60;0.10;;;21.60;22.70;;;;;;6152662;23;20483;-74
2022/09/14 14:35:15;;;;;;;0.60;0.10;;;21.60;22.70;;;;;;6154768;23;20408;-74
2022/09/14 14:37:46;;;;;;;0.60;0.10;;;21.60;27.90;;;;;;6153088;23;20428;-74
2022/09/14 14:40:15;;;;;;;0.60;0.10;;;21.50;33.40;;;;;;6153644;23;20897;-74
2022/09/14 14:42:44;;;;;;;0.60;0.20;;;21.50;33.50;;;;;;6154271;23;20416;-73
2022/09/14 14:45:17;;;;;;;0.60;0.20;;;21.50;43.60;;;;;;6153780;23;20472;-74
2022/09/14 14:47:46;;;;;;;0.60;0.10;;;21.50;48.20;;;;;;6154126;23;20428;-74
2022/09/14 14:50:15;;;;;;;0.60;0.10;;;21.40;53.40;;;;;;6154989;23;20479;-73
2022/09/14 14:52:45;;;;;;;0.60;0.13;;;21.40;56.20;;;;;;6155357;23;20436;-73
2022/09/14 14:55:13;;;;;;;0.60;0.10;;;21.40;61.30;;;;;;6154947;23;20441;-73
2022/09/14 14:57:41;;;;;;;0.60;0.10;;;;;;;;;;6155505;23;20472;-73
2022/09/14 15:00:15;;;;;;;0.60;0.10;;;21.40;66.60;;;;;;6154657;23;20788;-74
2022/09/14 15:02:42;;;;;;;0.60;0.10;;;21.30;79.40;;;;;;6154271;23;20833;-75
2022/09/14 15:05:11;;;;;;;0.60;0.20;;;21.40;79.90;;;;;;6156031;23;20445;-74
2022/09/14 15:07:39;;;;;;;0.60;0.10;;;;;;;;;;6155083;23;20989;-75
2022/09/14 15:10:13;;;;;;;0.60;0.10;;;21.30;79.80;;;;;;6154703;23;20405;-76
2022/09/14 15:12:40;;;;;;;0.60;0.10;;;21.30;79.80;;;;;;6154253;23;20389;-73
2022/09/14 15:15:12;;;;;;;0.60;0.17;;;21.30;79.80;;;;;;6153287;23;20405;-74
2022/09/14 15:17:40;;;;;;;0.60;0.10;;;21.30;80.10;;;;;;6154453;23;20437;-74
2022/09/14 15:20:09;;;;;;;0.60;0.10;;;21.40;80.10;;;;;;6156157;23;20408;-73
2022/09/14 15:22:39;;;;;;;0.60;0.13;;;21.40;79.90;;;;;;6154613;23;20404;-75
2022/09/14 15:25:10;;;;;;;0.60;0.10;;;21.40;79.90;;;;;;6154299;23;20497;-74
2022/09/14 15:27:39;;;;;;;0.60;0.10;;;21.40;80.00;;;;;;6155273;23;20433;-73
2022/09/14 15:30:08;;;;;;;0.60;0.10;;;;;;;;;;6155198;23;20405;-74
2022/09/14 15:32:36;;;;;;;0.60;0.10;;;21.40;90.40;;;;;;6155659;23;20429;-74
2022/09/14 15:35:05;;;;;;;0.60;0.10;;;21.40;91.40;;;;;;6156008;23;20459;-76
2022/09/14 15:37:32;;;;;;;0.60;0.10;;;21.50;93.50;;;;;;6155658;23;20936;-73
2022/09/14 15:40:00;;;;;;;0.60;0.10;;;21.50;94.00;;;;;;6156176;23;20405;-74
2022/09/14 15:42:30;;;;;;;0.60;0.10;;;21.50;93.80;;;;;;6152170;23;20837;-75
2022/09/14 15:44:57;;;;;;;0.60;0.10;;;21.50;92.50;;;;;;6154609;23;20700;-73
2022/09/14 15:47:25;;;;;;;0.60;0.10;;;21.50;92.40;;;;;;6155647;23;20495;-75
2022/09/14 15:49:53;;;;;;;0.60;0.10;;;;;;;;;;6155034;23;20971;-74
2022/09/14 15:52:21;;;;;;;0.60;0.10;;;21.60;97.40;;;;;;6154878;23;20403;-74
2022/09/14 15:54:50;;;;;;;0.60;0.10;;;21.60;97.50;;;;;;6154893;23;20894;-73
2022/09/14 15:57:18;;;;;;;0.60;0.10;;;21.60;96.60;;;;;;6152783;23;20425;-75
2022/09/14 15:59:47;;;;;;;0.60;0.10;;;21.70;95.20;;;;;;6155019;23;20420;-75
2022/09/14 16:02:15;;;;;;;0.60;0.10;;;21.70;93.60;;;;;;6156030;23;20404;-74
2022/09/14 16:04:43;;;;;;;0.60;0.10;;;21.60;91.60;;;;;;6155702;23;20507;-74
2022/09/14 16:07:11;;;;;;;0.60;0.10;;;21.60;91.00;;;;;;6154540;23;20515;-73
2022/09/14 16:09:41;;;;;;;0.60;0.20;;;21.50;91.60;;;;;;6155823;23;20467;-74
2022/09/14 16:12:10;;;;;;;0.60;0.10;;;21.50;91.90;;;;;;6155582;23;20517;-74
2022/09/14 16:14:38;;;;;;;0.60;0.10;;;21.50;93.30;;;;;;6156775;23;20397;-74
2022/09/14 16:17:10;;;;;;;0.60;0.10;;;21.50;95.00;;;;;;6157605;23;20440;-75
2022/09/14 16:19:38;;;;;;;0.60;0.10;;;;;;;;;;6156325;23;20416;-73
2022/09/14 16:22:06;;;;;;;0.60;0.10;;;21.40;99.00;;;;;;6157102;23;20409;-77
2022/09/14 16:24:34;;;;;;;0.60;0.10;;;21.40;99.00;;;;;;6159133;23;20500;-75
2022/09/14 16:27:04;;;;;;;0.60;0.10;;;;;;;;;;6156209;23;20428;-75
2022/09/14 16:29:32;;;;;;;0.60;0.10;;;21.40;99.60;;;;;;6155659;23;20408;-75
2022/09/14 16:32:07;;;;;;;0.60;0.20;;;21.40;99.70;;;;;;6155175;23;20410;-75
2022/09/14 16:34:36;;;;;;;0.60;0.10;;;21.40;99.90;;;;;;6156526;23;20850;-77
2022/09/14 16:37:04;;;;;;;0.60;0.10;;;;;;;;;;6154977;23;20480;-75
2022/09/14 16:39:33;;;;;;;0.60;0.10;;;21.40;99.90;;;;;;6156209;23;20408;-75
2022/09/14 16:42:01;;;;;;;0.60;0.10;;;21.40;99.90;;;;;;6154824;23;20416;-74
2022/09/14 16:44:30;;;;;;;0.60;0.10;;;21.40;99.90;;;;;;6155160;23;20500;-74
2022/09/14 16:46:59;;;;;;;0.60;0.10;;;21.40;99.90;;;;;;6154513;23;20429;-74
2022/09/14 16:49:28;;;;;;;0.60;0.10;;;21.40;99.90;;;;;;6154784;23;20428;-76
2022/09/14 16:51:59;;;;;;;0.60;0.10;;;21.40;99.90;;;;;;6154919;23;20405;-76
2022/09/14 16:54:28;;;;;;;0.60;0.20;;;21.40;99.90;;;;;;6154854;23;20404;-76
2022/09/14 16:56:58;;;;;;;0.60;0.10;;;21.30;99.90;;;;;;6154980;23;20425;-75
2022/09/14 16:59:26;;;;;;;0.60;0.10;;;21.30;99.90;;;;;;6155693;23;20744;-75
2022/09/14 17:01:54;;;;;;;0.60;0.20;;;21.30;99.90;;;;;;6154367;23;20405;-74
2022/09/14 17:04:23;;;;;;;0.60;0.10;;;21.30;99.90;;;;;;6154945;23;20438;-74
2022/09/14 17:06:54;;;;;;;0.60;0.10;;;21.30;99.90;;;;;;6154792;23;20417;-73
2022/09/14 17:09:25;;;;;;;0.60;0.10;;;21.40;99.90;;;;;;6154675;23;20413;-73
2022/09/14 17:11:53;;;;;;;0.60;0.13;;;21.30;99.90;;;;;;6154751;23;20436;-73
2022/09/14 17:14:23;;;;;;;0.60;0.10;;;21.30;99.90;;;;;;6154148;23;20397;-75
2022/09/14 17:16:52;;;;;;;0.60;0.10;;;21.30;99.90;;;;;;6154557;23;20437;-75
2022/09/14 17:19:20;;;;;;;0.60;0.10;;;21.30;99.90;;;;;;6154684;23;20395;-76
2022/09/14 17:21:49;;;;;;;0.60;0.10;;;21.30;99.90;;;;;;6154990;23;20405;-74
2022/09/14 17:24:19;;;;;;;0.60;0.20;;;21.30;99.90;;;;;;6153704;23;20416;-74
2022/09/14 17:26:47;;;;;;;0.60;0.10;;;21.30;99.90;;;;;;6153027;23;20417;-74
2022/09/14 17:29:15;;;;;;;2.23;0.83;;;21.20;99.90;;;;;;6153028;23;20464;-75
2022/09/14 17:31:44;;;;;;;0.60;0.20;;;21.10;99.90;;;;;;6153369;23;20683;-74
2022/09/14 17:34:14;;;;;;;0.60;0.10;;;21.10;99.90;;;;;;6153484;23;20968;-75
2022/09/14 17:36:42;;;;;;;0.60;0.10;;;21.00;99.90;;;;;;6153321;23;20953;-74
2022/09/14 17:39:10;;;;;;;0.60;0.10;;;21.00;99.90;;;;;;6153710;23;20460;-74
2022/09/14 17:41:41;;;;;;;0.60;0.10;;;21.00;99.90;;;;;;6153231;23;20894;-75
2022/09/14 17:44:11;;;;;;;0.60;0.10;;;21.00;99.90;;;;;;6153520;23;20420;-74
2022/09/14 17:46:39;;;;;;;0.60;0.10;;;21.00;99.90;;;;;;6153051;23;20961;-75
2022/09/14 17:49:19;;;;;;;0.60;0.10;;;21.00;99.90;;;;;;6153665;23;20425;-75
2022/09/14 17:51:47;;;;;;;0.60;0.20;;;21.00;99.90;;;;;;6151966;23;20405;-75
2022/09/14 17:54:16;;;;;;;0.60;0.20;;;21.00;99.90;;;;;;6152711;23;20465;-75
2022/09/14 17:56:45;;;;;;;0.60;0.13;;;21.00;99.90;;;;;;6153406;23;20417;-74
2022/09/14 17:59:16;;;;;;;0.60;0.10;;;21.00;99.90;;;;;;6154059;23;20424;-75
2022/09/14 18:01:44;;;;;;;0.60;0.20;;;21.00;99.90;;;;;;6154450;23;20405;-75
2022/09/14 18:04:14;;;;;;;0.60;0.20;;;21.00;99.90;;;;;;6153187;23;20738;-74
2022/09/14 18:06:43;;;;;;;5.00;3.17;;;21.00;99.90;;;;;;6153365;23;20444;-75
2022/09/14 18:09:13;;;;;;;0.60;0.10;;;20.90;99.90;;;;;;6153782;23;20464;-75
2022/09/14 18:11:41;;;;;;;0.60;0.10;;;20.80;99.90;;;;;;6153813;23;20709;-75
2022/09/14 18:14:12;;;;;;;1.40;1.30;;;20.60;99.90;;;;;;6153499;23;20448;-76
2022/09/14 18:16:41;;;;;;;0.60;0.20;;;20.60;97.90;;;;;;6153810;23;20417;-75
2022/09/14 18:19:09;;;;;;;0.60;0.10;;;20.50;99.40;;;;;;6153745;23;21024;-75
2022/09/14 18:21:37;;;;;;;0.70;0.30;;;20.50;98.50;;;;;;6153739;23;20493;-75
2022/09/14 18:24:05;;;;;;;0.60;0.20;;;20.40;96.20;;;;;;6152747;23;20460;-75
2022/09/14 18:26:34;;;;;;;0.60;0.20;;;;;;;;;;6153528;23;20437;-75
2022/09/14 18:29:02;;;;;;;0.60;0.30;;;20.10;89.50;;;;;;6153372;23;20775;-75
2022/09/14 18:31:31;;;;;;;2.77;1.33;;;20.10;90.80;;;;;;6153379;23;20475;-76
2022/09/14 18:34:00;;;;;;;0.80;0.37;;;20.00;95.70;;;;;;6152502;23;20441;-75
2022/09/14 18:36:29;;;;;;;0.60;0.10;;;19.90;98.40;;;;;;6152906;23;20416;-76
2022/09/14 18:38:57;;;;;;;0.70;0.30;;;19.90;99.90;;;;;;6153099;23;20932;-75
2022/09/14 18:41:27;;;;;;;0.60;0.10;;;19.90;99.90;;;;;;6153219;23;20409;-75
2022/09/14 18:43:55;;;;;;;0.60;0.10;;;20.00;99.90;;;;;;6152409;23;20421;-75
2022/09/14 18:46:24;;;;;;;0.60;0.17;;;20.00;99.90;;;;;;6152765;23;20768;-76
2022/09/14 18:48:59;;;;;;;0.60;0.10;;;20.00;99.90;;;;;;6153298;23;20831;-75
2022/09/14 18:51:28;;;;;;;0.80;0.43;;;20.10;99.90;;;;;;6153228;23;20421;-75
2022/09/14 18:53:56;;;;;;;0.60;0.10;;;20.00;99.90;;;;;;6152540;23;20968;-75
2022/09/14 18:56:25;;;;;;;0.60;0.30;;;19.90;99.90;;;;;;6151279;23;20405;-75
2022/09/14 18:58:53;;;;;;;0.60;0.10;;;19.90;99.90;;;;;;6152247;23;20428;-76
2022/09/14 19:01:21;;;;;;;1.57;1.30;;;19.90;99.90;;;;;;6152068;23;20475;-77
2022/09/14 19:03:49;;;;;;;0.70;0.37;;;19.80;99.90;;;;;;6153939;23;20711;-75
2022/09/14 19:06:19;;;;;;;0.60;0.10;;;19.70;99.90;;;;;;6153468;23;20464;-74
2022/09/14 19:08:46;;;;;;;0.87;0.87;;;19.60;99.90;;;;;;6154388;23;20393;-75
2022/09/14 19:11:16;;;;;;;0.70;0.50;;;19.60;99.90;;;;;;6154930;23;20405;-76
2022/09/14 19:13:45;;;;;;;0.60;0.30;;;19.60;99.90;;;;;;6154707;23;20405;-75
2022/09/14 19:16:15;;;;;;;4.33;0.90;;;19.50;99.90;;;;;;6154502;23;20397;-76
2022/09/14 19:18:43;;;;;;;1.10;0.90;;;19.50;99.90;;;;;;6154905;23;21119;-76
2022/09/14 19:21:13;;;;;;;1.07;0.90;;;19.40;99.90;;;;;;6155025;23;20416;-77
2022/09/14 19:23:43;;;;;;;0.60;0.10;;;19.40;99.90;;;;;;6154415;23;20405;-76
2022/09/14 19:26:15;;;;;;;0.60;0.20;;;19.40;99.90;;;;;;6154508;23;20756;-76
2022/09/14 19:28:44;;;;;;;0.60;0.10;;;19.40;99.90;;;;;;6155038;23;20483;-75
2022/09/14 19:31:12;;;;;;;1.47;1.37;;;;;;;;;;6155680;23;20405;-76
2022/09/14 19:33:41;;;;;;;0.80;0.30;;;19.40;99.90;;;;;;6155896;23;20416;-77
2022/09/14 19:36:16;;;;;;;0.90;0.43;;;19.30;99.90;;;;;;6155507;23;20412;-76
2022/09/14 19:38:45;;;;;;;0.60;0.10;;;19.30;99.90;;;;;;6155579;23;20504;-76
2022/09/14 19:41:13;;;;;;;1.00;0.30;;;19.30;99.90;;;;;;6156082;23;20409;-75
2022/09/14 19:43:41;;;;;;;0.83;0.40;;;19.30;99.90;;;;;;6155952;23;20424;-76
2022/09/14 19:46:12;;;;;;;0.80;0.40;;;19.30;99.90;;;;;;6155530;23;20949;-75
2022/09/14 19:48:40;;;;;;;0.70;0.60;;;;;;;;;;6155067;23;20448;-76
2022/09/14 19:51:13;;;;;;;0.60;0.20;;;19.30;99.90;;;;;;6154822;23;20416;-75
2022/09/14 19:53:41;;;;;;;0.60;0.20;;;19.30;99.90;;;;;;6155676;23;20386;-75
2022/09/14 19:56:12;;;;;;;0.60;0.20;;;19.30;99.90;;;;;;6155517;23;20488;-76
2022/09/14 19:58:42;;;;;;;0.60;0.17;;;19.40;99.90;;;;;;6153672;23;20479;-75
2022/09/14 20:01:11;;;;;;;0.60;0.10;;;19.30;99.90;;;;;;6154874;23;20917;-75
2022/09/14 20:03:39;;;;;;;0.60;0.10;;;19.30;99.90;;;;;;6154737;23;20412;-75
2022/09/14 20:06:09;;;;;;;0.60;0.10;;;19.30;99.90;;;;;;6154571;23;20440;-75
2022/09/14 20:08:37;;;;;;;0.60;0.20;;;19.30;99.90;;;;;;6155230;23;20742;-75
2022/09/14 20:11:05;;;;;;;0.60;0.13;;;19.30;99.90;;;;;;6154189;23;20406;-75
2022/09/14 20:13:35;;;;;;;0.60;0.10;;;19.40;99.90;;;;;;6154760;23;20416;-75
2022/09/14 20:16:09;;;;;;;1.03;0.47;;;19.40;99.90;;;;;;6154440;23;20943;-74
2022/09/14 20:18:37;;;;;;;0.60;0.10;;;19.40;99.90;;;;;;6154318;23;20486;-76
2022/09/14 20:21:07;;;;;;;0.70;0.20;;;19.30;99.90;;;;;;6154678;23;20405;-75
2022/09/14 20:23:36;;;;;;;0.60;0.10;;;19.20;99.90;;;;;;6154145;23;20898;-75